<?xml version="1.0" encoding="UTF-8" standalone="no" ?>
<gpx xmlns="http://www.topografix.com/GPX/1/1" xmlns:xsi="http://www.w3.org/2001/XMLSchema-instance" xsi:schemaLocation="http://www.topografix.com/GPX/1/1 http://www.topografix.com/GPX/1/1/gpx.xsd" version="1.1" creator="VisuGPX - https://www.visugpx.com">
  <metadata>
    <name>Panoramique Colmars - Villars-Colmars</name>
    <desc><![CDATA[[b]Nouvelle portion restaurée en 07/2015[/b]
(Balisée mais non encore panneautée)
Prolonge avantageusement l\'itinéraire bien connu des \'Espiniers\'
Très beaux panoramas sur Colmars, Villars, la vallée du Haut-Verdon
Déconseillé au VTT (pentes raides, galets)
]]></desc>
  </metadata>
  <trk>
    <name><![CDATA[Chassette150712b]]></name>
    <trkseg>
      <trkpt lat="44.17008" lon="6.60492">
        <ele>1254.2</ele>
        <time>2015-07-12T16:56:27Z</time>
      </trkpt>
      <trkpt lat="44.17007" lon="6.60494">
        <ele>1256.1</ele>
        <time>2015-07-12T16:57:17Z</time>
      </trkpt>
      <trkpt lat="44.17006" lon="6.60495">
        <ele>1255.1</ele>
        <time>2015-07-12T16:57:27Z</time>
      </trkpt>
      <trkpt lat="44.17006" lon="6.60501">
        <ele>1256.1</ele>
        <time>2015-07-12T16:57:31Z</time>
      </trkpt>
      <trkpt lat="44.17007" lon="6.60506">
        <ele>1256.6</ele>
        <time>2015-07-12T16:57:34Z</time>
      </trkpt>
      <trkpt lat="44.16998" lon="6.60535">
        <ele>1259.5</ele>
        <time>2015-07-12T16:57:56Z</time>
      </trkpt>
      <trkpt lat="44.16994" lon="6.60558">
        <ele>1262.8</ele>
        <time>2015-07-12T16:58:15Z</time>
      </trkpt>
      <trkpt lat="44.16994" lon="6.60583">
        <ele>1265.2</ele>
        <time>2015-07-12T16:58:35Z</time>
      </trkpt>
      <trkpt lat="44.17006" lon="6.60602">
        <ele>1268.1</ele>
        <time>2015-07-12T16:58:56Z</time>
      </trkpt>
      <trkpt lat="44.17022" lon="6.60611">
        <ele>1271</ele>
        <time>2015-07-12T16:59:16Z</time>
      </trkpt>
      <trkpt lat="44.17033" lon="6.60609">
        <ele>1273.9</ele>
        <time>2015-07-12T16:59:31Z</time>
      </trkpt>
      <trkpt lat="44.1704" lon="6.60609">
        <ele>1274.8</ele>
        <time>2015-07-12T16:59:49Z</time>
      </trkpt>
      <trkpt lat="44.17041" lon="6.60608">
        <ele>1275.8</ele>
        <time>2015-07-12T17:01:01Z</time>
      </trkpt>
      <trkpt lat="44.17061" lon="6.60607">
        <ele>1275.8</ele>
        <time>2015-07-12T17:01:18Z</time>
      </trkpt>
      <trkpt lat="44.17065" lon="6.60609">
        <ele>1275.8</ele>
        <time>2015-07-12T17:01:22Z</time>
      </trkpt>
      <trkpt lat="44.17058" lon="6.60616">
        <ele>1276.3</ele>
        <time>2015-07-12T17:01:30Z</time>
      </trkpt>
      <trkpt lat="44.17057" lon="6.60619">
        <ele>1276.3</ele>
        <time>2015-07-12T17:01:32Z</time>
      </trkpt>
      <trkpt lat="44.17058" lon="6.60626">
        <ele>1277.2</ele>
        <time>2015-07-12T17:01:38Z</time>
      </trkpt>
      <trkpt lat="44.17064" lon="6.60641">
        <ele>1280.1</ele>
        <time>2015-07-12T17:01:53Z</time>
      </trkpt>
      <trkpt lat="44.1707" lon="6.60651">
        <ele>1281.6</ele>
        <time>2015-07-12T17:02:04Z</time>
      </trkpt>
      <trkpt lat="44.17077" lon="6.60661">
        <ele>1283.5</ele>
        <time>2015-07-12T17:02:18Z</time>
      </trkpt>
      <trkpt lat="44.17083" lon="6.60666">
        <ele>1285.4</ele>
        <time>2015-07-12T17:02:29Z</time>
      </trkpt>
      <trkpt lat="44.17088" lon="6.60676">
        <ele>1287.3</ele>
        <time>2015-07-12T17:02:44Z</time>
      </trkpt>
      <trkpt lat="44.17094" lon="6.60692">
        <ele>1290.2</ele>
        <time>2015-07-12T17:03:04Z</time>
      </trkpt>
      <trkpt lat="44.171" lon="6.60705">
        <ele>1293.1</ele>
        <time>2015-07-12T17:03:20Z</time>
      </trkpt>
      <trkpt lat="44.17106" lon="6.60718">
        <ele>1296</ele>
        <time>2015-07-12T17:03:39Z</time>
      </trkpt>
      <trkpt lat="44.17112" lon="6.60727">
        <ele>1297.4</ele>
        <time>2015-07-12T17:03:54Z</time>
      </trkpt>
      <trkpt lat="44.17124" lon="6.60727">
        <ele>1300.8</ele>
        <time>2015-07-12T17:04:13Z</time>
      </trkpt>
      <trkpt lat="44.17133" lon="6.60726">
        <ele>1303.7</ele>
        <time>2015-07-12T17:04:32Z</time>
      </trkpt>
      <trkpt lat="44.1714" lon="6.60727">
        <ele>1305.1</ele>
        <time>2015-07-12T17:04:47Z</time>
      </trkpt>
      <trkpt lat="44.17145" lon="6.60728">
        <ele>1308.5</ele>
        <time>2015-07-12T17:05:01Z</time>
      </trkpt>
      <trkpt lat="44.17152" lon="6.60731">
        <ele>1310.4</ele>
        <time>2015-07-12T17:05:14Z</time>
      </trkpt>
      <trkpt lat="44.17161" lon="6.60728">
        <ele>1312.8</ele>
        <time>2015-07-12T17:05:32Z</time>
      </trkpt>
      <trkpt lat="44.17168" lon="6.60733">
        <ele>1316.2</ele>
        <time>2015-07-12T17:05:48Z</time>
      </trkpt>
      <trkpt lat="44.17175" lon="6.60733">
        <ele>1318.1</ele>
        <time>2015-07-12T17:06:02Z</time>
      </trkpt>
      <trkpt lat="44.17183" lon="6.60734">
        <ele>1321.5</ele>
        <time>2015-07-12T17:06:21Z</time>
      </trkpt>
      <trkpt lat="44.17189" lon="6.60737">
        <ele>1324.4</ele>
        <time>2015-07-12T17:06:38Z</time>
      </trkpt>
      <trkpt lat="44.17196" lon="6.60739">
        <ele>1327.2</ele>
        <time>2015-07-12T17:06:55Z</time>
      </trkpt>
      <trkpt lat="44.17202" lon="6.60743">
        <ele>1329.6</ele>
        <time>2015-07-12T17:07:12Z</time>
      </trkpt>
      <trkpt lat="44.17211" lon="6.60742">
        <ele>1333.5</ele>
        <time>2015-07-12T17:07:33Z</time>
      </trkpt>
      <trkpt lat="44.1722" lon="6.60742">
        <ele>1336.4</ele>
        <time>2015-07-12T17:07:52Z</time>
      </trkpt>
      <trkpt lat="44.17225" lon="6.60741">
        <ele>1338.3</ele>
        <time>2015-07-12T17:08:07Z</time>
      </trkpt>
      <trkpt lat="44.17231" lon="6.60739">
        <ele>1341.2</ele>
        <time>2015-07-12T17:08:25Z</time>
      </trkpt>
      <trkpt lat="44.17238" lon="6.60734">
        <ele>1344.5</ele>
        <time>2015-07-12T17:08:44Z</time>
      </trkpt>
      <trkpt lat="44.17245" lon="6.60723">
        <ele>1347.4</ele>
        <time>2015-07-12T17:09:05Z</time>
      </trkpt>
      <trkpt lat="44.17252" lon="6.60712">
        <ele>1350.8</ele>
        <time>2015-07-12T17:09:24Z</time>
      </trkpt>
      <trkpt lat="44.17261" lon="6.60709">
        <ele>1353.7</ele>
        <time>2015-07-12T17:09:46Z</time>
      </trkpt>
      <trkpt lat="44.17267" lon="6.60721">
        <ele>1357</ele>
        <time>2015-07-12T17:10:06Z</time>
      </trkpt>
      <trkpt lat="44.17273" lon="6.60721">
        <ele>1359.9</ele>
        <time>2015-07-12T17:10:26Z</time>
      </trkpt>
      <trkpt lat="44.17284" lon="6.60716">
        <ele>1363.8</ele>
        <time>2015-07-12T17:10:47Z</time>
      </trkpt>
      <trkpt lat="44.17292" lon="6.60727">
        <ele>1366.7</ele>
        <time>2015-07-12T17:11:09Z</time>
      </trkpt>
      <trkpt lat="44.17297" lon="6.60735">
        <ele>1369.5</ele>
        <time>2015-07-12T17:11:26Z</time>
      </trkpt>
      <trkpt lat="44.17304" lon="6.60738">
        <ele>1372.9</ele>
        <time>2015-07-12T17:11:43Z</time>
      </trkpt>
      <trkpt lat="44.17317" lon="6.60743">
        <ele>1376.3</ele>
        <time>2015-07-12T17:12:02Z</time>
      </trkpt>
      <trkpt lat="44.1732" lon="6.60746">
        <ele>1376.7</ele>
        <time>2015-07-12T17:12:08Z</time>
      </trkpt>
      <trkpt lat="44.17325" lon="6.60761">
        <ele>1380.1</ele>
        <time>2015-07-12T17:12:28Z</time>
      </trkpt>
      <trkpt lat="44.17332" lon="6.60768">
        <ele>1381.1</ele>
        <time>2015-07-12T17:12:47Z</time>
      </trkpt>
      <trkpt lat="44.17335" lon="6.60772">
        <ele>1382.5</ele>
        <time>2015-07-12T17:13:47Z</time>
      </trkpt>
      <trkpt lat="44.17343" lon="6.60772">
        <ele>1384.4</ele>
        <time>2015-07-12T17:13:57Z</time>
      </trkpt>
      <trkpt lat="44.17349" lon="6.60763">
        <ele>1387.8</ele>
        <time>2015-07-12T17:14:09Z</time>
      </trkpt>
      <trkpt lat="44.17352" lon="6.60755">
        <ele>1390.7</ele>
        <time>2015-07-12T17:14:25Z</time>
      </trkpt>
      <trkpt lat="44.17358" lon="6.60747">
        <ele>1394</ele>
        <time>2015-07-12T17:14:42Z</time>
      </trkpt>
      <trkpt lat="44.17367" lon="6.60739">
        <ele>1396.9</ele>
        <time>2015-07-12T17:15:05Z</time>
      </trkpt>
      <trkpt lat="44.17365" lon="6.60738">
        <ele>1397.4</ele>
        <time>2015-07-12T17:15:08Z</time>
      </trkpt>
      <trkpt lat="44.17358" lon="6.60738">
        <ele>1397.9</ele>
        <time>2015-07-12T17:15:32Z</time>
      </trkpt>
      <trkpt lat="44.17354" lon="6.60728">
        <ele>1398.9</ele>
        <time>2015-07-12T17:15:50Z</time>
      </trkpt>
      <trkpt lat="44.17361" lon="6.60722">
        <ele>1401.7</ele>
        <time>2015-07-12T17:16:05Z</time>
      </trkpt>
      <trkpt lat="44.17364" lon="6.60712">
        <ele>1405.6</ele>
        <time>2015-07-12T17:16:23Z</time>
      </trkpt>
      <trkpt lat="44.17377" lon="6.60714">
        <ele>1407.5</ele>
        <time>2015-07-12T17:16:39Z</time>
      </trkpt>
      <trkpt lat="44.17383" lon="6.60713">
        <ele>1410.4</ele>
        <time>2015-07-12T17:16:51Z</time>
      </trkpt>
      <trkpt lat="44.1738" lon="6.60702">
        <ele>1414.2</ele>
        <time>2015-07-12T17:17:06Z</time>
      </trkpt>
      <trkpt lat="44.17386" lon="6.607">
        <ele>1416.2</ele>
        <time>2015-07-12T17:17:24Z</time>
      </trkpt>
      <trkpt lat="44.17393" lon="6.60695">
        <ele>1419</ele>
        <time>2015-07-12T17:17:42Z</time>
      </trkpt>
      <trkpt lat="44.17392" lon="6.60693">
        <ele>1421</ele>
        <time>2015-07-12T17:17:45Z</time>
      </trkpt>
      <trkpt lat="44.17391" lon="6.60685">
        <ele>1422.9</ele>
        <time>2015-07-12T17:18:01Z</time>
      </trkpt>
      <trkpt lat="44.17389" lon="6.60677">
        <ele>1425.3</ele>
        <time>2015-07-12T17:18:16Z</time>
      </trkpt>
      <trkpt lat="44.1739" lon="6.60676">
        <ele>1426.7</ele>
        <time>2015-07-12T17:18:18Z</time>
      </trkpt>
      <trkpt lat="44.17397" lon="6.60679">
        <ele>1428.2</ele>
        <time>2015-07-12T17:18:35Z</time>
      </trkpt>
      <trkpt lat="44.17403" lon="6.6067">
        <ele>1431.1</ele>
        <time>2015-07-12T17:18:54Z</time>
      </trkpt>
      <trkpt lat="44.17406" lon="6.60659">
        <ele>1434.4</ele>
        <time>2015-07-12T17:19:12Z</time>
      </trkpt>
      <trkpt lat="44.17412" lon="6.6065">
        <ele>1437.8</ele>
        <time>2015-07-12T17:19:35Z</time>
      </trkpt>
      <trkpt lat="44.17415" lon="6.60639">
        <ele>1441.2</ele>
        <time>2015-07-12T17:19:50Z</time>
      </trkpt>
      <trkpt lat="44.17423" lon="6.6063">
        <ele>1444</ele>
        <time>2015-07-12T17:20:11Z</time>
      </trkpt>
      <trkpt lat="44.17431" lon="6.60621">
        <ele>1447.9</ele>
        <time>2015-07-12T17:20:30Z</time>
      </trkpt>
      <trkpt lat="44.17439" lon="6.60612">
        <ele>1450.8</ele>
        <time>2015-07-12T17:20:49Z</time>
      </trkpt>
      <trkpt lat="44.17444" lon="6.6061">
        <ele>1451.2</ele>
        <time>2015-07-12T17:20:56Z</time>
      </trkpt>
      <trkpt lat="44.17459" lon="6.60605">
        <ele>1452.2</ele>
        <time>2015-07-12T17:21:10Z</time>
      </trkpt>
      <trkpt lat="44.17474" lon="6.60599">
        <ele>1452.2</ele>
        <time>2015-07-12T17:21:27Z</time>
      </trkpt>
      <trkpt lat="44.17477" lon="6.60596">
        <ele>1453.2</ele>
        <time>2015-07-12T17:21:31Z</time>
      </trkpt>
      <trkpt lat="44.17494" lon="6.6058">
        <ele>1453.7</ele>
        <time>2015-07-12T17:21:52Z</time>
      </trkpt>
      <trkpt lat="44.17505" lon="6.60562">
        <ele>1456.1</ele>
        <time>2015-07-12T17:22:11Z</time>
      </trkpt>
      <trkpt lat="44.17525" lon="6.60547">
        <ele>1456.5</ele>
        <time>2015-07-12T17:22:31Z</time>
      </trkpt>
      <trkpt lat="44.17537" lon="6.60541">
        <ele>1459.9</ele>
        <time>2015-07-12T17:22:45Z</time>
      </trkpt>
      <trkpt lat="44.17547" lon="6.60532">
        <ele>1462.8</ele>
        <time>2015-07-12T17:23:04Z</time>
      </trkpt>
      <trkpt lat="44.17554" lon="6.60529">
        <ele>1466.1</ele>
        <time>2015-07-12T17:23:18Z</time>
      </trkpt>
      <trkpt lat="44.17563" lon="6.60521">
        <ele>1469</ele>
        <time>2015-07-12T17:23:37Z</time>
      </trkpt>
      <trkpt lat="44.17572" lon="6.60512">
        <ele>1471.9</ele>
        <time>2015-07-12T17:23:55Z</time>
      </trkpt>
      <trkpt lat="44.17581" lon="6.60505">
        <ele>1474.8</ele>
        <time>2015-07-12T17:24:11Z</time>
      </trkpt>
      <trkpt lat="44.17589" lon="6.60498">
        <ele>1478.2</ele>
        <time>2015-07-12T17:24:28Z</time>
      </trkpt>
      <trkpt lat="44.17602" lon="6.60493">
        <ele>1481</ele>
        <time>2015-07-12T17:24:47Z</time>
      </trkpt>
      <trkpt lat="44.17619" lon="6.60486">
        <ele>1483.9</ele>
        <time>2015-07-12T17:25:11Z</time>
      </trkpt>
      <trkpt lat="44.17631" lon="6.60483">
        <ele>1487.3</ele>
        <time>2015-07-12T17:25:27Z</time>
      </trkpt>
      <trkpt lat="44.17643" lon="6.60475">
        <ele>1491.1</ele>
        <time>2015-07-12T17:25:46Z</time>
      </trkpt>
      <trkpt lat="44.17655" lon="6.60466">
        <ele>1494</ele>
        <time>2015-07-12T17:26:07Z</time>
      </trkpt>
      <trkpt lat="44.17659" lon="6.6046">
        <ele>1495.9</ele>
        <time>2015-07-12T17:26:15Z</time>
      </trkpt>
      <trkpt lat="44.17675" lon="6.60446">
        <ele>1498.4</ele>
        <time>2015-07-12T17:26:40Z</time>
      </trkpt>
      <trkpt lat="44.17684" lon="6.60442">
        <ele>1501.7</ele>
        <time>2015-07-12T17:26:59Z</time>
      </trkpt>
      <trkpt lat="44.17687" lon="6.60437">
        <ele>1503.6</ele>
        <time>2015-07-12T17:27:13Z</time>
      </trkpt>
      <trkpt lat="44.17693" lon="6.60434">
        <ele>1506</ele>
        <time>2015-07-12T17:27:28Z</time>
      </trkpt>
      <trkpt lat="44.17697" lon="6.60418">
        <ele>1509.4</ele>
        <time>2015-07-12T17:27:50Z</time>
      </trkpt>
      <trkpt lat="44.17701" lon="6.604">
        <ele>1511.8</ele>
        <time>2015-07-12T17:28:09Z</time>
      </trkpt>
      <trkpt lat="44.17709" lon="6.60391">
        <ele>1513.7</ele>
        <time>2015-07-12T17:28:23Z</time>
      </trkpt>
      <trkpt lat="44.17717" lon="6.60381">
        <ele>1515.7</ele>
        <time>2015-07-12T17:28:36Z</time>
      </trkpt>
      <trkpt lat="44.17725" lon="6.60365">
        <ele>1517.6</ele>
        <time>2015-07-12T17:28:51Z</time>
      </trkpt>
      <trkpt lat="44.17732" lon="6.60353">
        <ele>1519.5</ele>
        <time>2015-07-12T17:29:07Z</time>
      </trkpt>
      <trkpt lat="44.17741" lon="6.60342">
        <ele>1521.9</ele>
        <time>2015-07-12T17:29:19Z</time>
      </trkpt>
      <trkpt lat="44.17754" lon="6.60335">
        <ele>1523.3</ele>
        <time>2015-07-12T17:29:32Z</time>
      </trkpt>
      <trkpt lat="44.1776" lon="6.60333">
        <ele>1524.8</ele>
        <time>2015-07-12T17:29:42Z</time>
      </trkpt>
      <trkpt lat="44.17768" lon="6.60329">
        <ele>1526.2</ele>
        <time>2015-07-12T17:29:55Z</time>
      </trkpt>
      <trkpt lat="44.17776" lon="6.60322">
        <ele>1528.6</ele>
        <time>2015-07-12T17:30:08Z</time>
      </trkpt>
      <trkpt lat="44.1779" lon="6.6031">
        <ele>1530.1</ele>
        <time>2015-07-12T17:30:24Z</time>
      </trkpt>
      <trkpt lat="44.17799" lon="6.60304">
        <ele>1531.5</ele>
        <time>2015-07-12T17:30:37Z</time>
      </trkpt>
      <trkpt lat="44.17808" lon="6.60297">
        <ele>1533</ele>
        <time>2015-07-12T17:30:49Z</time>
      </trkpt>
      <trkpt lat="44.17813" lon="6.60289">
        <ele>1534.9</ele>
        <time>2015-07-12T17:31:01Z</time>
      </trkpt>
      <trkpt lat="44.17812" lon="6.6029">
        <ele>1534.9</ele>
        <time>2015-07-12T17:31:02Z</time>
      </trkpt>
      <trkpt lat="44.17803" lon="6.60301">
        <ele>1536.3</ele>
        <time>2015-07-12T17:31:17Z</time>
      </trkpt>
      <trkpt lat="44.17801" lon="6.60304">
        <ele>1537.3</ele>
        <time>2015-07-12T17:31:21Z</time>
      </trkpt>
      <trkpt lat="44.17798" lon="6.60316">
        <ele>1539.7</ele>
        <time>2015-07-12T17:31:29Z</time>
      </trkpt>
      <trkpt lat="44.17791" lon="6.60326">
        <ele>1539.7</ele>
        <time>2015-07-12T17:31:39Z</time>
      </trkpt>
      <trkpt lat="44.17784" lon="6.60344">
        <ele>1542.6</ele>
        <time>2015-07-12T17:31:54Z</time>
      </trkpt>
      <trkpt lat="44.17789" lon="6.60349">
        <ele>1544</ele>
        <time>2015-07-12T17:32:06Z</time>
      </trkpt>
      <trkpt lat="44.17795" lon="6.60345">
        <ele>1544</ele>
        <time>2015-07-12T17:32:16Z</time>
      </trkpt>
      <trkpt lat="44.17796" lon="6.60344">
        <ele>1545</ele>
        <time>2015-07-12T17:32:18Z</time>
      </trkpt>
      <trkpt lat="44.17802" lon="6.60341">
        <ele>1545.9</ele>
        <time>2015-07-12T17:32:25Z</time>
      </trkpt>
      <trkpt lat="44.17816" lon="6.60332">
        <ele>1548.3</ele>
        <time>2015-07-12T17:32:41Z</time>
      </trkpt>
      <trkpt lat="44.17826" lon="6.60318">
        <ele>1550.7</ele>
        <time>2015-07-12T17:32:57Z</time>
      </trkpt>
      <trkpt lat="44.17835" lon="6.60314">
        <ele>1552.2</ele>
        <time>2015-07-12T17:33:06Z</time>
      </trkpt>
      <trkpt lat="44.1784" lon="6.60308">
        <ele>1554.1</ele>
        <time>2015-07-12T17:33:19Z</time>
      </trkpt>
      <trkpt lat="44.17849" lon="6.60302">
        <ele>1556</ele>
        <time>2015-07-12T17:33:31Z</time>
      </trkpt>
      <trkpt lat="44.17854" lon="6.60296">
        <ele>1557.5</ele>
        <time>2015-07-12T17:33:43Z</time>
      </trkpt>
      <trkpt lat="44.17838" lon="6.60309">
        <ele>1558.4</ele>
        <time>2015-07-12T17:34:00Z</time>
      </trkpt>
      <trkpt lat="44.17828" lon="6.60325">
        <ele>1558.9</ele>
        <time>2015-07-12T17:34:14Z</time>
      </trkpt>
      <trkpt lat="44.17828" lon="6.60335">
        <ele>1559.4</ele>
        <time>2015-07-12T17:34:22Z</time>
      </trkpt>
      <trkpt lat="44.17829" lon="6.60341">
        <ele>1559.9</ele>
        <time>2015-07-12T17:34:26Z</time>
      </trkpt>
      <trkpt lat="44.17829" lon="6.60343">
        <ele>1559.9</ele>
        <time>2015-07-12T17:34:42Z</time>
      </trkpt>
      <trkpt lat="44.17827" lon="6.60363">
        <ele>1562</ele>
        <time>2015-07-12T17:34:42Z</time>
      </trkpt>
      <trkpt lat="44.17833" lon="6.60385">
        <ele>1562</ele>
        <time>2015-07-12T17:34:42Z</time>
      </trkpt>
      <trkpt lat="44.17845" lon="6.60413">
        <ele>1562</ele>
        <time>2015-07-12T17:34:42Z</time>
      </trkpt>
      <trkpt lat="44.17864" lon="6.6044">
        <ele>1563</ele>
        <time>2015-07-12T17:34:42Z</time>
      </trkpt>
      <trkpt lat="44.17884" lon="6.60468">
        <ele>1563</ele>
        <time>2015-07-12T17:34:42Z</time>
      </trkpt>
      <trkpt lat="44.17903" lon="6.60496">
        <ele>1563</ele>
        <time>2015-07-12T17:34:42Z</time>
      </trkpt>
      <trkpt lat="44.17918" lon="6.60528">
        <ele>1563</ele>
        <time>2015-07-12T17:34:42Z</time>
      </trkpt>
    </trkseg>
  </trk>
</gpx>